CheckWX is a tool to help pilots better visualize weather data.  It is not intended as a substitute for an official pre-flight weather briefing.

04:05:03 UTC

CYQI TAF
Yarmouth Airport
Yarmouth, Canada
TAF AMD CYQI 240308Z 2403/2412 VRB03KT 1/2SM -SHRA FG VV002 TEMPO 2403/2406 1/4SM -DZ FG VV001 FM240600 28006KT 1/4SM -DZ FG VV001 TEMPO 2406/2410 1/2SM FG VV002 FM241000 30008KT 1SM -RA BR OVC004 RMK NXT FCST BY 240600Z

Apr-24@
03:00 UTC

Apr-24 @ 03:00 UTC

Apr-24@
06:00 UTC

Apr-24 @ 06:00 UTC

TAF AMD CYQI 240308Z 2403/2412 VRB03KT 1/2SM -SHRA FG VV002
Wind
  • Variable at 3 KTS
Conditions
Light Rain, Fog
Cloud Levels
  • Vertical visibility at 200' AGL

Apr-24@
03:00 UTC

Apr-24 @ 03:00 UTC

Apr-24@
06:00 UTC

Apr-24 @ 06:00 UTC

TEMPO 2403/2406 1/4SM -DZ FG VV001

Temporary

Temporary Changes expected for less than half the time period

Conditions
Light Drizzle, Fog
Cloud Levels
  • Vertical visibility at 100' AGL

Apr-24@
06:00 UTC

Apr-24 @ 06:00 UTC

Apr-24@
10:00 UTC

Apr-24 @ 10:00 UTC

FM240600 28006KT 1/4SM -DZ FG VV001

From

From Standard forecast or significant change

Wind
  • 280° at 6 KTS
Conditions
Light Drizzle, Fog
Cloud Levels
  • Vertical visibility at 100' AGL

Apr-24@
06:00 UTC

Apr-24 @ 06:00 UTC

Apr-24@
10:00 UTC

Apr-24 @ 10:00 UTC

TEMPO 2406/2410 1/2SM FG VV002

Temporary

Temporary Changes expected for less than half the time period

Conditions
Fog
Cloud Levels
  • Vertical visibility at 200' AGL

Apr-24@
10:00 UTC

Apr-24 @ 10:00 UTC

Apr-24@
12:00 UTC

Apr-24 @ 12:00 UTC

FM241000 30008KT 1SM -RA BR OVC004 RMK NXT FCST BY 240600Z

From

From Standard forecast or significant change

Wind
  • 300° at 8 KTS
Conditions
Light Rain, Mist
Cloud Levels
  • Overcast at 400' AGL